Arnhem/Dieren, Netherlands
Current Conditions -  °F | °C
As of 10:25 AM on Friday 28 Nov 2014 (Local Time) from EHDL Reporting Station
Haze Haze  
Wind Chill: 35°   Ceiling: 9400
Heat Index: 41°   Visibility: 4mi
Dew Point: 39°   Wind: 10mph
Humidity: 93%   Direction: 90°E
Pressure: 29.8"   Gusts: NA
Location:  52.07°N, 5.88°E
Report Text: EHDL 280925Z AUTO 09009KT 6000 BR FEW070 OVC094 05/04 Q1009 WHT
Loading
Personal Weather Stations






























Interactive Weather Map New forecast layout! Learn more

10-Day Weather Forecast

Advertisements
Track Severe Weather on mobile